Global Wisdom — V7NI9 — position and weather

sailwx.info

Track history (hours):
 
Tides and Currents Weather Stations Pressure Air Temp Water Temp Dewpoint Dewpoint Depression Visibility Wind Speed Wind Dir Waves Ship Positions

Global Wisdom

Last reported at 2018-Apr-05 23:05 UTC. Time now 2018-Apr-20 08:21 UTC.
Position N 48°31' W 126°27'.
Warning: this ship's position is 14 days out of date.

Length 175 m; draft 10.2 m.

Type: Cargo ship. MMSI: 538006462.

Date/timePositionNaut miles runAvg speedWind from/ knotsBaromVisibWave heightAir tempDewpointWater temp
2018-Apr-05 23:05N 48°31' W 126°27'3 8.2
2018-Apr-05 22:42N 48°31' W 126°22'2 8.1
2018-Apr-05 22:28N 48°31' W 126°20'4 8.1
2018-Apr-05 21:58N 48°31' W 126°14'4 8.0
2018-Apr-05 21:27N 48°31' W 126°07'4 8.5
2018-Apr-05 21:00N 48°31' W 126°02'5 9.2
2018-Apr-05 20:30N 48°31' W 125°55'5 9.8
2018-Apr-05 20:00N 48°31' W 125°47'510.0
2018-Apr-05 19:30N 48°31' W 125°40'5 9.9
2018-Apr-05 19:00N 48°31' W 125°32'510.0
2018-Apr-05 18:30N 48°31' W 125°25'510.4
2018-Apr-05 17:59N 48°31' W 125°17'611.3
2018-Apr-05 17:30N 48°31' W 125°08'612.3
2018-Apr-05 17:00N 48°31' W 124°59'612.2
2018-Apr-05 16:30N 48°31' W 124°50'611.8
2018-Apr-05 16:00N 48°30' W 124°41'612.1
2018-Apr-05 15:30N 48°28' W 124°33'612.0
2018-Apr-05 15:00N 48°25' W 124°24'611.5
2018-Apr-05 14:30N 48°23' W 124°16'611.3
2018-Apr-05 14:00N 48°21' W 124°08'611.0
2018-Apr-05 13:30N 48°19' W 124°01'610.6
2018-Apr-05 12:57N 48°17' W 123°52'611.1
2018-Apr-05 12:27N 48°16' W 123°44'511.4
2018-Apr-05 12:00N 48°16' W 123°36'5 9.3
2018-Apr-05 11:30N 48°15' W 123°29'610.6
2018-Apr-05 10:59N 48°21' W 123°26'4 8.6
2018-Apr-05 10:30N 48°23' W 123°21'612.0
2018-Apr-05 10:01N 48°25' W 123°13'714.2
2018-Apr-05 09:30N 48°32' W 123°13'714.7
2018-Apr-05 09:00N 48°39' W 123°15'612.1
2018-Apr-05 08:31N 48°44' W 123°09'713.9
2018-Apr-05 08:00N 48°48' W 123°00'713.8
2018-Apr-05 07:30N 48°53' W 123°07'713.7
2018-Apr-05 07:00N 48°58' W 123°15'612.4
2018-Apr-05 06:30N 49°03' W 123°21'5 9.0
2018-Apr-05 06:00N 49°07' W 123°17'4 8.3
2018-Apr-05 05:30N 49°07' W 123°11'4 8.4
2018-Apr-05 05:00N 49°07' W 123°05'4 8.2
2018-Apr-05 04:30N 49°09' W 122°60'3 6.5
2018-Apr-05 04:00N 49°11' W 122°55'1 0.8
2018-Apr-05 03:23N 49°11' W 122°55'0 0.0
2018-Apr-05 02:59N 49°11' W 122°55'0 0.0
2018-Apr-05 02:29N 49°11' W 122°55'0 0.0
2018-Apr-05 01:59N 49°11' W 122°55'0 0.0
2018-Apr-05 01:29N 49°11' W 122°55'0 0.0
2018-Apr-05 00:59N 49°11' W 122°55'0 0.0
2018-Apr-05 00:26N 49°11' W 122°55'0 0.0
2018-Apr-04 23:59N 49°11' W 122°55'0 0.0
2018-Apr-04 23:29N 49°11' W 122°55'0 0.0
2018-Apr-04 22:59N 49°11' W 122°55'0 0.0
2018-Apr-04 22:29N 49°11' W 122°55'0 0.0
2018-Apr-04 21:59N 49°11' W 122°55'0 0.0
2018-Apr-04 21:29N 49°11' W 122°55'0 0.0
2018-Apr-04 20:59N 49°11' W 122°55'0 0.0
2018-Apr-04 20:29N 49°11' W 122°55'0 0.0
2018-Apr-04 19:59N 49°11' W 122°55'0 0.0
2018-Apr-04 19:29N 49°11' W 122°55'0 0.0
2018-Apr-04 18:59N 49°11' W 122°55'0 0.0
2018-Apr-04 18:29N 49°11' W 122°55'0 0.0
2018-Apr-04 17:59N 49°11' W 122°55'0 0.0
2018-Apr-04 17:29N 49°11' W 122°55'0 0.0
2018-Apr-04 16:59N 49°11' W 122°55'0 0.0
2018-Apr-04 16:29N 49°11' W 122°55'0 0.0
2018-Apr-04 15:56N 49°11' W 122°55'0 0.0
2018-Apr-04 15:26N 49°11' W 122°55'0 0.0
2018-Apr-04 14:59N 49°11' W 122°55'0 0.0
2018-Apr-04 14:29N 49°11' W 122°55'0 0.0
2018-Apr-04 13:59N 49°11' W 122°55'0 0.0
2018-Apr-04 13:29N 49°11' W 122°55'0 0.0
2018-Apr-04 12:59N 49°11' W 122°55'0 0.0
2018-Apr-04 12:29N 49°11' W 122°55'0 0.0
2018-Apr-04 11:56N 49°11' W 122°55'0 0.0
2018-Apr-04 11:29N 49°11' W 122°55'0 0.0
2018-Apr-04 10:59N 49°11' W 122°55'0 0.0
2018-Apr-04 10:29N 49°11' W 122°55'0 0.0
2018-Apr-04 09:59N 49°11' W 122°55'0 0.0
2018-Apr-04 09:29N 49°11' W 122°55'0 0.0
2018-Apr-04 08:56N 49°11' W 122°55'0 0.0
2018-Apr-04 08:29N 49°11' W 122°55'0 0.0
2018-Apr-04 07:59N 49°11' W 122°55'0 0.0
2018-Apr-04 07:29N 49°11' W 122°55'0 0.0
2018-Apr-04 06:56N 49°11' W 122°55'0 0.0
2018-Apr-04 06:29N 49°11' W 122°55'0 0.0
2018-Apr-04 05:59N 49°11' W 122°55'0 0.0
2018-Apr-04 05:29N 49°11' W 122°55'0 0.0
2018-Apr-04 04:59N 49°11' W 122°55'0 0.0
2018-Apr-04 04:29N 49°11' W 122°55'0 0.0
2018-Apr-04 03:59N 49°11' W 122°55'0 0.0
2018-Apr-04 03:29N 49°11' W 122°55'0 0.0
2018-Apr-04 02:59N 49°11' W 122°55'0 0.0
2018-Apr-04 02:29N 49°11' W 122°55'0 0.0
2018-Apr-04 01:59N 49°11' W 122°55'0 0.0
2018-Apr-04 01:29N 49°11' W 122°55'0 0.0
2018-Apr-04 00:59N 49°11' W 122°55'0 0.0
2018-Apr-04 00:29N 49°11' W 122°55'0 0.0
2018-Apr-03 23:59N 49°11' W 122°55'0 0.0
2018-Apr-03 23:29N 49°11' W 122°55'0 0.0
2018-Apr-03 22:59N 49°11' W 122°55'0 0.0
2018-Apr-03 22:29N 49°11' W 122°55'0 0.0
2018-Apr-03 21:59N 49°11' W 122°55'0 0.0
2018-Apr-03 21:29N 49°11' W 122°55'0 0.0
2018-Apr-03 20:59N 49°11' W 122°55'0 0.0
2018-Apr-03 20:26N 49°11' W 122°55'0 0.0
2018-Apr-03 19:59N 49°11' W 122°55'0 0.0
2018-Apr-03 19:26N 49°11' W 122°55'0 0.0
2018-Apr-03 18:59N 49°11' W 122°55'0 0.0
2018-Apr-03 18:29N 49°11' W 122°55'0 0.0
2018-Apr-03 17:59N 49°11' W 122°55'0 0.0
2018-Apr-03 17:29N 49°11' W 122°55'0 0.0
2018-Apr-03 16:59N 49°11' W 122°55'0 0.0
2018-Apr-03 16:29N 49°11' W 122°55'0 0.0
2018-Apr-03 15:59N 49°11' W 122°55'0 0.0
2018-Apr-03 15:29N 49°11' W 122°55'0 0.0
2018-Apr-03 14:59N 49°11' W 122°55'0 0.0
2018-Apr-03 14:29N 49°11' W 122°55'0 0.0
2018-Apr-03 13:59N 49°11' W 122°55'0 0.0
2018-Apr-03 13:29N 49°11' W 122°55'0 0.0
2018-Apr-03 12:59N 49°11' W 122°55'0 0.0
2018-Apr-03 12:29N 49°11' W 122°55'0 0.0
2018-Apr-03 11:59N 49°11' W 122°55'0 0.0
2018-Apr-03 11:29N 49°11' W 122°55'0 0.0
2018-Apr-03 10:59N 49°11' W 122°55'0 0.0
2018-Apr-03 10:29N 49°11' W 122°55'0 0.0
2018-Apr-03 09:59N 49°11' W 122°55'0 0.0
2018-Apr-03 09:29N 49°11' W 122°55'0 0.0
2018-Apr-03 08:59N 49°11' W 122°55'0 0.0
2018-Apr-03 08:29N 49°11' W 122°55'0 0.0
2018-Apr-03 07:59N 49°11' W 122°55'0 0.0
2018-Apr-03 07:29N 49°11' W 122°55'0 0.0
2018-Apr-03 06:56N 49°11' W 122°55'0 0.0
2018-Apr-03 06:29N 49°11' W 122°55'0 0.0
2018-Apr-03 05:59N 49°11' W 122°55'0 0.0
2018-Apr-03 05:29N 49°11' W 122°55'0 0.0
2018-Apr-03 04:56N 49°11' W 122°55'0 0.0
2018-Apr-03 04:29N 49°11' W 122°55'0 0.0
2018-Apr-03 03:56N 49°11' W 122°55'0 0.0
2018-Apr-03 03:29N 49°11' W 122°55'0 0.0
2018-Apr-03 02:59N 49°11' W 122°55'0 0.0
2018-Apr-03 02:29N 49°11' W 122°55'0 0.0
2018-Apr-03 01:59N 49°11' W 122°55'0 0.0
2018-Apr-03 01:29N 49°11' W 122°55'0 0.0
2018-Apr-03 00:59N 49°11' W 122°55'0 0.0
2018-Apr-03 00:29N 49°11' W 122°55'0 0.0
2018-Apr-02 23:59N 49°11' W 122°55'0 0.0
2018-Apr-02 23:29N 49°11' W 122°55'0 0.0
2018-Apr-02 22:59N 49°11' W 122°55'0 0.0
2018-Apr-02 22:29N 49°11' W 122°55'0 0.0
2018-Apr-02 21:59N 49°11' W 122°55'0 0.0
2018-Apr-02 21:29N 49°11' W 122°55'0 0.0
2018-Apr-02 20:59N 49°11' W 122°55'0 0.0
2018-Apr-02 20:29N 49°11' W 122°55'0 0.0
2018-Apr-02 19:59N 49°11' W 122°55'0 0.0
2018-Apr-02 19:29N 49°11' W 122°55'0 0.0
2018-Apr-02 18:59N 49°11' W 122°55'0 0.0
2018-Apr-02 18:29N 49°11' W 122°55'0 0.0
2018-Apr-02 17:59N 49°11' W 122°55'0 0.0
2018-Apr-02 17:29N 49°11' W 122°55'0 0.0
2018-Apr-02 16:59N 49°11' W 122°55'0 0.0
2018-Apr-02 16:29N 49°11' W 122°55'0 0.0
2018-Apr-02 15:59N 49°11' W 122°55'0 0.0
2018-Apr-02 15:29N 49°11' W 122°55'0 0.0
2018-Apr-02 14:59N 49°11' W 122°55'0 0.0
2018-Apr-02 14:29N 49°11' W 122°55'0 0.0
2018-Apr-02 13:59N 49°11' W 122°55'0 0.0
2018-Apr-02 13:29N 49°11' W 122°55'0 0.0
2018-Apr-02 12:59N 49°11' W 122°55'0 0.0
2018-Apr-02 12:29N 49°11' W 122°55'0 0.0
2018-Apr-02 11:59N 49°11' W 122°55'0 0.0
2018-Apr-02 11:29N 49°11' W 122°55'0 0.0
2018-Apr-02 10:59N 49°11' W 122°55'0 0.0
2018-Apr-02 10:29N 49°11' W 122°55'0 0.0
2018-Apr-02 09:59N 49°11' W 122°55'0 0.0
2018-Apr-02 09:29N 49°11' W 122°55'0 0.0
2018-Apr-02 08:59N 49°11' W 122°55'0 0.0
2018-Apr-02 08:29N 49°11' W 122°55'0 0.0
2018-Apr-02 07:56N 49°11' W 122°55'0 0.0
2018-Apr-02 07:29N 49°11' W 122°55'0 0.0
2018-Apr-02 06:59N 49°11' W 122°55'0 0.0
2018-Apr-02 06:29N 49°11' W 122°55'0 0.0
2018-Apr-02 05:59N 49°11' W 122°55'0 0.0
2018-Apr-02 05:29N 49°11' W 122°55'0 0.0
2018-Apr-02 04:59N 49°11' W 122°55'0 0.0
2018-Apr-02 04:29N 49°11' W 122°55'0 0.0
2018-Apr-02 03:59N 49°11' W 122°55'0 0.0
2018-Apr-02 03:29N 49°11' W 122°55'0 0.0
2018-Apr-02 02:59N 49°11' W 122°55'0 0.0
2018-Apr-02 02:26N 49°11' W 122°55'0 0.0
2018-Apr-02 01:59N 49°11' W 122°55'0 0.0
2018-Apr-02 01:29N 49°11' W 122°55'0 0.0
2018-Apr-02 00:59N 49°11' W 122°55'0 0.0
2018-Apr-02 00:29N 49°11' W 122°55'0 0.0
2018-Apr-01 23:59N 49°11' W 122°55'0 0.0
2018-Apr-01 23:29N 49°11' W 122°55'0 0.0
2018-Apr-01 22:59N 49°11' W 122°55'0 0.0
2018-Apr-01 22:29N 49°11' W 122°55'0 0.0
2018-Apr-01 21:59N 49°11' W 122°55'0 0.0
2018-Apr-01 21:29N 49°11' W 122°55'0 0.0
2018-Apr-01 20:59N 49°11' W 122°55'0 0.0
2018-Apr-01 20:29N 49°11' W 122°55'0 0.0
2018-Apr-01 19:59N 49°11' W 122°55'0 0.0
2018-Apr-01 19:29N 49°11' W 122°55'0 0.0
2018-Apr-01 18:59N 49°11' W 122°55'0 0.0
2018-Apr-01 18:29N 49°11' W 122°55'0 0.0
2018-Apr-01 17:59N 49°11' W 122°55'0 0.0
2018-Apr-01 17:29N 49°11' W 122°55'0 0.0
2018-Apr-01 16:59N 49°11' W 122°55'0 0.0
2018-Apr-01 16:29N 49°11' W 122°55'0 0.0
2018-Apr-01 15:59N 49°11' W 122°55'0 0.0
2018-Apr-01 15:29N 49°11' W 122°55'0 0.0
2018-Apr-01 14:59N 49°11' W 122°55'0 0.0
2018-Apr-01 14:29N 49°11' W 122°55'0 0.0
2018-Apr-01 13:59N 49°11' W 122°55'0 0.0
2018-Apr-01 13:29N 49°11' W 122°55'0 0.0
2018-Apr-01 12:59N 49°11' W 122°55'0 0.0
2018-Apr-01 12:29N 49°11' W 122°55'0 0.0
2018-Apr-01 11:59N 49°11' W 122°55'0 0.0
2018-Apr-01 11:29N 49°11' W 122°55'0 0.0
2018-Apr-01 10:59N 49°11' W 122°55'0 0.0
2018-Apr-01 10:29N 49°11' W 122°55'0 0.0
2018-Apr-01 09:59N 49°11' W 122°55'0 0.0
2018-Apr-01 09:29N 49°11' W 122°55'0 0.0
2018-Apr-01 08:59N 49°11' W 122°55'0 0.0
2018-Apr-01 08:29N 49°11' W 122°55'0 0.0
2018-Apr-01 07:59N 49°11' W 122°55'0 0.0
2018-Apr-01 07:29N 49°11' W 122°55'0 0.0
2018-Apr-01 06:59N 49°11' W 122°55'0 0.0
2018-Apr-01 06:29N 49°11' W 122°55'0 0.0
2018-Apr-01 05:59N 49°11' W 122°55'0 0.0
2018-Apr-01 05:29N 49°11' W 122°55'0 0.0
2018-Apr-01 04:59N 49°11' W 122°55'0 0.0
2018-Apr-01 04:29N 49°11' W 122°55'0 0.0
2018-Apr-01 03:59N 49°11' W 122°55'0 0.0
2018-Apr-01 03:26N 49°11' W 122°55'0 0.0
2018-Apr-01 02:59N 49°11' W 122°55'0 0.0
2018-Apr-01 02:29N 49°11' W 122°55'0 0.0
2018-Apr-01 01:59N 49°11' W 122°55'0 0.0
2018-Apr-01 01:29N 49°11' W 122°55'0 0.0
2018-Apr-01 00:59N 49°11' W 122°55'0 0.0
2018-Apr-01 00:29N 49°11' W 122°55'0 0.0
2018-Mar-31 23:59N 49°11' W 122°55'0 0.0
2018-Mar-31 23:29N 49°11' W 122°55'0 0.0
2018-Mar-31 22:59N 49°11' W 122°55'0 0.0
2018-Mar-31 22:29N 49°11' W 122°55'0 0.0
2018-Mar-31 21:59N 49°11' W 122°55'0 0.0
2018-Mar-31 21:29N 49°11' W 122°55'0 0.0
2018-Mar-31 20:59N 49°11' W 122°55'0 0.0
2018-Mar-31 20:29N 49°11' W 122°55'0 0.0
2018-Mar-31 19:59N 49°11' W 122°55'0 0.0
2018-Mar-31 19:29N 49°11' W 122°55'0 0.0
2018-Mar-31 18:59N 49°11' W 122°55'0 0.0
2018-Mar-31 18:29N 49°11' W 122°55'0 0.0
2018-Mar-31 17:59N 49°11' W 122°55'0 0.0
2018-Mar-31 17:29N 49°11' W 122°55'0 0.0
2018-Mar-31 16:59N 49°11' W 122°55'0 0.0
2018-Mar-31 16:29N 49°11' W 122°55'0 0.0
2018-Mar-31 15:59N 49°11' W 122°55'0 0.0
2018-Mar-31 15:29N 49°11' W 122°55'0 0.0
2018-Mar-31 14:59N 49°11' W 122°55'0 0.0
2018-Mar-31 14:29N 49°11' W 122°55'0 0.0
2018-Mar-31 13:59N 49°11' W 122°55'0 0.0
2018-Mar-31 13:26N 49°11' W 122°55'0 0.0
2018-Mar-31 12:59N 49°11' W 122°55'0 0.0
2018-Mar-31 12:29N 49°11' W 122°55'0 0.0
2018-Mar-31 11:59N 49°11' W 122°55'0 0.0
2018-Mar-31 11:29N 49°11' W 122°55'0 0.0
2018-Mar-31 10:59N 49°11' W 122°55'0 0.0
2018-Mar-31 10:29N 49°11' W 122°55'0 0.0
2018-Mar-31 09:59N 49°11' W 122°55'0 0.0
2018-Mar-31 09:29N 49°11' W 122°55'0 0.0
2018-Mar-31 08:59N 49°11' W 122°55'0 0.0
2018-Mar-31 08:29N 49°11' W 122°55'0 0.0
2018-Mar-31 07:59N 49°11' W 122°55'0 0.0
2018-Mar-31 07:29N 49°11' W 122°55'0 0.0
2018-Mar-31 06:59N 49°11' W 122°55'0 0.0
2018-Mar-31 06:29N 49°11' W 122°55'0 0.0
2018-Mar-31 05:59N 49°11' W 122°55'0 0.0
2018-Mar-31 05:29N 49°11' W 122°55'0 0.0
2018-Mar-31 04:59N 49°11' W 122°55'0 0.0
2018-Mar-31 04:29N 49°11' W 122°55'0 0.0
2018-Mar-31 03:59N 49°11' W 122°55'0 0.0
2018-Mar-31 03:29N 49°11' W 122°55'0 0.0
2018-Mar-31 02:59N 49°11' W 122°55'0 0.0
2018-Mar-31 02:29N 49°11' W 122°55'0 0.0
2018-Mar-31 01:59N 49°11' W 122°55'0 0.0
2018-Mar-31 01:29N 49°11' W 122°55'0 0.0
2018-Mar-31 00:59N 49°11' W 122°55'0 0.0
2018-Mar-31 00:29N 49°11' W 122°55'0 0.0
2018-Mar-30 23:59N 49°11' W 122°55'0 0.0
2018-Mar-30 23:29N 49°11' W 122°55'0 0.0
2018-Mar-30 22:59N 49°11' W 122°55'0 0.0
2018-Mar-30 22:29N 49°11' W 122°55'0 0.0
2018-Mar-30 21:59N 49°11' W 122°55'0 0.0
2018-Mar-30 21:29N 49°11' W 122°55'0 0.0
2018-Mar-30 20:59N 49°11' W 122°55'0 0.0
2018-Mar-30 20:29N 49°11' W 122°55'0 0.0
2018-Mar-30 19:59N 49°11' W 122°55'0 0.0
2018-Mar-30 19:29N 49°11' W 122°55'0 0.0
2018-Mar-30 18:59N 49°11' W 122°55'0 0.0
2018-Mar-30 18:29N 49°11' W 122°55'0 0.0
2018-Mar-30 17:59N 49°11' W 122°55'0 0.0
2018-Mar-30 17:26N 49°11' W 122°55'0 0.0
2018-Mar-30 16:53N 49°11' W 122°55'0 0.0
2018-Mar-30 16:29N 49°11' W 122°55'0 0.0
2018-Mar-30 15:56N 49°11' W 122°55'0 0.0
2018-Mar-30 15:29N 49°11' W 122°55'0 0.0
2018-Mar-30 14:59N 49°11' W 122°55'0 0.0
2018-Mar-30 14:29N 49°11' W 122°55'0 0.0
2018-Mar-30 13:59N 49°11' W 122°55'0 0.0
2018-Mar-30 13:29N 49°11' W 122°55'0 0.0
2018-Mar-30 12:59N 49°11' W 122°55'0 0.0
2018-Mar-30 12:29N 49°11' W 122°55'0 0.0
2018-Mar-30 11:59N 49°11' W 122°55'0 0.0
2018-Mar-30 11:29N 49°11' W 122°55'0 0.0
2018-Mar-30 10:59N 49°11' W 122°55'0 0.0
2018-Mar-30 10:29N 49°11' W 122°55'0 0.0
2018-Mar-30 09:59N 49°11' W 122°55'0 0.0
2018-Mar-30 09:29N 49°11' W 122°55'0 0.0
2018-Mar-30 08:59N 49°11' W 122°55'0 0.0
2018-Mar-30 08:29N 49°11' W 122°55'0 0.0
2018-Mar-30 07:59N 49°11' W 122°55'0 0.0
2018-Mar-30 07:26N 49°11' W 122°55'0 0.0
2018-Mar-30 06:59N 49°11' W 122°55'0 0.0
2018-Mar-30 06:29N 49°11' W 122°55'0 0.0
2018-Mar-30 05:59N 49°11' W 122°55'0 0.0
2018-Mar-30 05:29N 49°11' W 122°55'0 0.0
2018-Mar-30 04:59N 49°11' W 122°55'0 0.0
2018-Mar-30 04:29N 49°11' W 122°55'0 0.0
2018-Mar-30 03:59N 49°11' W 122°55'0 0.0
2018-Mar-30 03:29N 49°11' W 122°55'0 0.0
2018-Mar-30 02:59N 49°11' W 122°55'0 0.0
2018-Mar-30 02:29N 49°11' W 122°55'0 0.0
2018-Mar-30 01:59N 49°11' W 122°55'0 0.0
2018-Mar-30 01:26N 49°11' W 122°55'0 0.0
2018-Mar-30 00:59N 49°11' W 122°55'0 0.0
2018-Mar-30 00:29N 49°11' W 122°55'0 0.0
2018-Mar-29 23:59N 49°11' W 122°55'0 0.0
2018-Mar-29 23:29N 49°11' W 122°55'0 0.0
2018-Mar-29 22:59N 49°11' W 122°55'0 0.0
2018-Mar-29 22:29N 49°11' W 122°55'0 0.0
2018-Mar-29 21:59N 49°11' W 122°55'0 0.0
2018-Mar-29 21:29N 49°11' W 122°55'0 0.0
2018-Mar-29 20:56N 49°11' W 122°55'0 0.0
2018-Mar-29 20:29N 49°11' W 122°55'0 0.0
2018-Mar-29 19:59N 49°11' W 122°55'0 0.0
2018-Mar-29 19:29N 49°11' W 122°55'0 0.0
2018-Mar-29 18:56N 49°11' W 122°55'0 0.0
2018-Mar-29 18:29N 49°11' W 122°55'0 0.0
2018-Mar-29 17:59N 49°11' W 122°55'0 0.0
2018-Mar-29 17:29N 49°11' W 122°55'0 0.0
2018-Mar-29 16:59N 49°11' W 122°55'0 0.0
2018-Mar-29 16:23N 49°11' W 122°55'0 0.0
2018-Mar-29 15:59N 49°11' W 122°55'0 0.0
2018-Mar-29 15:29N 49°11' W 122°55'0 0.0
2018-Mar-29 14:56N 49°11' W 122°55'0 0.0
2018-Mar-29 14:29N 49°11' W 122°55'0 0.0
2018-Mar-29 13:59N 49°11' W 122°55'0 0.0
2018-Mar-29 13:26N 49°11' W 122°55'0 0.0
2018-Mar-29 12:59N 49°11' W 122°55'0 0.0
2018-Mar-29 12:29N 49°11' W 122°55'0 0.0
2018-Mar-29 11:59N 49°11' W 122°55'0 0.0
2018-Mar-29 11:29N 49°11' W 122°55'0 0.0
2018-Mar-29 10:59N 49°11' W 122°55'0 0.0
2018-Mar-29 10:29N 49°11' W 122°55'0 0.0
2018-Mar-29 09:59N 49°11' W 122°55'0 0.0
2018-Mar-29 09:29N 49°11' W 122°55'0 0.0
2018-Mar-29 08:59N 49°11' W 122°55'0 0.0
2018-Mar-29 08:29N 49°11' W 122°55'0 0.0
2018-Mar-29 07:59N 49°11' W 122°55'0 0.0
2018-Mar-29 07:29N 49°11' W 122°55'0 0.0
2018-Mar-29 06:59N 49°11' W 122°55'0 0.0
2018-Mar-29 06:29N 49°11' W 122°55'0 0.0
2018-Mar-29 05:59N 49°11' W 122°55'0 0.0
2018-Mar-29 05:29N 49°11' W 122°55'0 0.0
2018-Mar-29 04:59N 49°11' W 122°55'0 0.0
2018-Mar-29 04:29N 49°11' W 122°55'0 0.0
2018-Mar-29 03:59N 49°11' W 122°55'0 0.0
2018-Mar-29 03:29N 49°11' W 122°55'0 0.0
2018-Mar-29 02:59N 49°11' W 122°55'0 0.0
2018-Mar-29 02:29N 49°11' W 122°55'0 0.0
2018-Mar-29 01:59N 49°11' W 122°55'0 0.0
2018-Mar-29 01:29N 49°11' W 122°55'0 0.0
2018-Mar-29 00:59N 49°11' W 122°55'0 0.0
2018-Mar-29 00:29N 49°11' W 122°55'0 0.0
2018-Mar-28 23:59N 49°11' W 122°55'0 0.0
2018-Mar-28 23:29N 49°11' W 122°55'0 0.0
2018-Mar-28 22:59N 49°11' W 122°55'0 0.0
2018-Mar-28 22:29N 49°11' W 122°55'0 0.0
2018-Mar-28 21:59N 49°11' W 122°55'0 0.0
2018-Mar-28 21:29N 49°11' W 122°55'0 0.0
2018-Mar-28 20:59N 49°11' W 122°55'0 0.0
2018-Mar-28 20:29N 49°11' W 122°55'0 0.0
2018-Mar-28 19:59N 49°11' W 122°55'0 0.0
2018-Mar-28 19:29N 49°11' W 122°55'0 0.0
2018-Mar-28 18:59N 49°11' W 122°55'0 0.0
2018-Mar-28 18:26N 49°11' W 122°55'0 0.0
2018-Mar-28 17:59N 49°11' W 122°55'0 0.0
2018-Mar-28 17:29N 49°11' W 122°55'0 0.0
2018-Mar-28 16:59N 49°11' W 122°55'0 0.0
2018-Mar-28 16:29N 49°11' W 122°55'0 0.0
2018-Mar-28 15:59N 49°11' W 122°55'0 0.0
2018-Mar-28 15:29N 49°11' W 122°55'0 0.0
2018-Mar-28 14:59N 49°11' W 122°55'0 0.0
2018-Mar-28 14:29N 49°11' W 122°55'0 0.0
2018-Mar-28 13:59N 49°11' W 122°55'0 0.0
2018-Mar-28 13:29N 49°11' W 122°55'0 0.0
2018-Mar-28 12:59N 49°11' W 122°55'0 0.0
2018-Mar-28 12:29N 49°11' W 122°55'0 0.0
2018-Mar-28 11:59N 49°11' W 122°55'0 0.0
2018-Mar-28 11:29N 49°11' W 122°55'0 0.0
2018-Mar-28 10:59N 49°11' W 122°55'0 0.0
2018-Mar-28 10:29N 49°11' W 122°55'0 0.0
2018-Mar-28 09:56N 49°11' W 122°55'0 0.0
2018-Mar-28 09:29N 49°11' W 122°55'0 0.0
2018-Mar-28 08:59N 49°11' W 122°55'0 0.0
2018-Mar-28 08:29N 49°11' W 122°55'0 0.0
2018-Mar-28 07:59N 49°11' W 122°55'0 0.0
2018-Mar-28 07:29N 49°11' W 122°55'0 0.0
2018-Mar-28 06:59N 49°11' W 122°55'0 0.0
2018-Mar-28 06:29N 49°11' W 122°55'0 0.0
2018-Mar-28 05:59N 49°11' W 122°55'0 0.0
2018-Mar-28 05:29N 49°11' W 122°55'0 0.0
2018-Mar-28 04:59N 49°11' W 122°55'0 0.0
2018-Mar-28 04:29N 49°11' W 122°55'0 0.0
2018-Mar-28 03:59N 49°11' W 122°55'0 0.0
2018-Mar-28 03:29N 49°11' W 122°55'0 0.0
2018-Mar-28 02:59N 49°11' W 122°55'0 0.0
2018-Mar-28 02:29N 49°11' W 122°55'0 0.0
2018-Mar-28 01:59N 49°11' W 122°55'0 0.0
2018-Mar-28 01:29N 49°11' W 122°55'0 0.0
2018-Mar-28 00:59N 49°11' W 122°55'0 0.0
2018-Mar-28 00:29N 49°11' W 122°55'0 0.0
2018-Mar-27 23:59N 49°11' W 122°55'0 0.0
2018-Mar-27 23:29N 49°11' W 122°55'0 0.0
2018-Mar-27 22:59N 49°11' W 122°55'0 0.0
2018-Mar-27 22:29N 49°11' W 122°55'0 0.0
2018-Mar-27 21:59N 49°11' W 122°55'0 0.0
2018-Mar-27 21:29N 49°11' W 122°55'0 0.0
2018-Mar-27 20:59N 49°11' W 122°55'0 0.0
2018-Mar-27 20:29N 49°11' W 122°55'0 0.0
2018-Mar-27 19:59N 49°11' W 122°55'0 0.0
2018-Mar-27 19:29N 49°11' W 122°55'0 0.0
2018-Mar-27 18:59N 49°11' W 122°55'0 0.0
2018-Mar-27 18:29N 49°11' W 122°55'0 0.0
2018-Mar-27 17:59N 49°11' W 122°55'0 0.0
2018-Mar-27 17:29N 49°11' W 122°55'0 0.0
2018-Mar-27 16:59N 49°11' W 122°55'0 0.0
2018-Mar-27 16:29N 49°11' W 122°55'0 0.0
2018-Mar-27 15:59N 49°11' W 122°55'0 0.0
2018-Mar-27 15:29N 49°11' W 122°55'0 0.0
2018-Mar-27 14:56N 49°11' W 122°55'0 0.0
2018-Mar-27 14:29N 49°11' W 122°55'0 0.0
2018-Mar-27 14:00N 49°11' W 122°55'1 2.0
2018-Mar-27 13:30N 49°11' W 122°55'3 6.9
2018-Mar-27 13:00N 49°09' W 123°00'4 8.8
2018-Mar-27 12:30N 49°07' W 123°06'510.3
2018-Mar-27 12:01N 49°08' W 123°13'510.9
2018-Mar-27 11:30N 49°05' W 123°21'3 5.4
2018-Mar-27 10:59N 49°08' W 123°24'4 8.3
2018-Mar-27 10:30N 49°12' W 123°22'4 8.6
2018-Mar-27 10:00N 49°16' W 123°21'5 9.5
2018-Mar-27 09:30N 49°19' W 123°15'1 2.0
2018-Mar-27 08:58N 49°18' W 123°14'0 0.0
2018-Mar-27 08:28N 49°17' W 123°14'0 0.0
2018-Mar-27 07:58N 49°18' W 123°14'0 0.0
2018-Mar-27 07:28N 49°17' W 123°14'0 0.1
2018-Mar-27 06:58N 49°17' W 123°14'0 0.1
2018-Mar-27 06:28N 49°17' W 123°14'0 0.1
2018-Mar-27 05:46N 49°18' W 123°14'0 0.1
2018-Mar-27 05:16N 49°18' W 123°14'0 0.1
2018-Mar-27 04:58N 49°18' W 123°14'0 0.0
2018-Mar-27 04:28N 49°18' W 123°14'0 0.1
2018-Mar-27 03:49N 49°17' W 123°14'0 0.1
2018-Mar-27 03:28N 49°17' W 123°14'0 0.0
2018-Mar-27 02:49N 49°17' W 123°14'0 0.0
2018-Mar-27 02:28N 49°17' W 123°14'0 0.1
2018-Mar-27 01:58N 49°17' W 123°14'0 0.1
2018-Mar-27 01:25N 49°18' W 123°14'0 0.0
2018-Mar-27 00:58N 49°18' W 123°14'0 0.0
2018-Mar-27 00:28N 49°18' W 123°14'0 0.1
2018-Mar-26 23:52N 49°18' W 123°14'0 0.0
2018-Mar-26 23:28N 49°18' W 123°14'  
Track history (hours):
 
Tides and Currents Weather Stations Pressure Air Temp Water Temp Dewpoint Dewpoint Depression Visibility Wind Speed Wind Dir Waves Ship Positions

Global Wisdom

Last reported at 2018-Apr-05 23:05 UTC. Time now 2018-Apr-20 08:21 UTC.
Position N 48°31' W 126°27'.
Warning: this ship's position is 14 days out of date.

Length 175 m; draft 10.2 m.

Type: Cargo ship. MMSI: 538006462.

Date/timePositionNaut miles runAvg speedWind from/ knotsBaromVisibWave heightAir tempDewpointWater temp
2018-Apr-05 23:05N 48°31' W 126°27'3 8.2
2018-Apr-05 22:42N 48°31' W 126°22'2 8.1
2018-Apr-05 22:28N 48°31' W 126°20'4 8.1
2018-Apr-05 21:58N 48°31' W 126°14'4 8.0
2018-Apr-05 21:27N 48°31' W 126°07'4 8.5
2018-Apr-05 21:00N 48°31' W 126°02'5 9.2
2018-Apr-05 20:30N 48°31' W 125°55'5 9.8
2018-Apr-05 20:00N 48°31' W 125°47'510.0
2018-Apr-05 19:30N 48°31' W 125°40'5 9.9
2018-Apr-05 19:00N 48°31' W 125°32'510.0
2018-Apr-05 18:30N 48°31' W 125°25'510.4
2018-Apr-05 17:59N 48°31' W 125°17'611.3
2018-Apr-05 17:30N 48°31' W 125°08'612.3
2018-Apr-05 17:00N 48°31' W 124°59'612.2
2018-Apr-05 16:30N 48°31' W 124°50'611.8
2018-Apr-05 16:00N 48°30' W 124°41'612.1
2018-Apr-05 15:30N 48°28' W 124°33'612.0
2018-Apr-05 15:00N 48°25' W 124°24'611.5
2018-Apr-05 14:30N 48°23' W 124°16'611.3
2018-Apr-05 14:00N 48°21' W 124°08'611.0
2018-Apr-05 13:30N 48°19' W 124°01'610.6
2018-Apr-05 12:57N 48°17' W 123°52'611.1
2018-Apr-05 12:27N 48°16' W 123°44'511.4
2018-Apr-05 12:00N 48°16' W 123°36'5 9.3
2018-Apr-05 11:30N 48°15' W 123°29'610.6
2018-Apr-05 10:59N 48°21' W 123°26'4 8.6
2018-Apr-05 10:30N 48°23' W 123°21'612.0
2018-Apr-05 10:01N 48°25' W 123°13'714.2
2018-Apr-05 09:30N 48°32' W 123°13'714.7
2018-Apr-05 09:00N 48°39' W 123°15'612.1
2018-Apr-05 08:31N 48°44' W 123°09'713.9
2018-Apr-05 08:00N 48°48' W 123°00'713.8
2018-Apr-05 07:30N 48°53' W 123°07'713.7
2018-Apr-05 07:00N 48°58' W 123°15'612.4
2018-Apr-05 06:30N 49°03' W 123°21'5 9.0
2018-Apr-05 06:00N 49°07' W 123°17'4 8.3
2018-Apr-05 05:30N 49°07' W 123°11'4 8.4
2018-Apr-05 05:00N 49°07' W 123°05'4 8.2
2018-Apr-05 04:30N 49°09' W 122°60'3 6.5
2018-Apr-05 04:00N 49°11' W 122°55'1 0.8
2018-Apr-05 03:23N 49°11' W 122°55'0 0.0
2018-Apr-05 02:59N 49°11' W 122°55'0 0.0
2018-Apr-05 02:29N 49°11' W 122°55'0 0.0
2018-Apr-05 01:59N 49°11' W 122°55'0 0.0
2018-Apr-05 01:29N 49°11' W 122°55'0 0.0
2018-Apr-05 00:59N 49°11' W 122°55'0 0.0
2018-Apr-05 00:26N 49°11' W 122°55'0 0.0
2018-Apr-04 23:59N 49°11' W 122°55'0 0.0
2018-Apr-04 23:29N 49°11' W 122°55'0 0.0
2018-Apr-04 22:59N 49°11' W 122°55'0 0.0
2018-Apr-04 22:29N 49°11' W 122°55'0 0.0
2018-Apr-04 21:59N 49°11' W 122°55'0 0.0
2018-Apr-04 21:29N 49°11' W 122°55'0 0.0
2018-Apr-04 20:59N 49°11' W 122°55'0 0.0
2018-Apr-04 20:29N 49°11' W 122°55'0 0.0
2018-Apr-04 19:59N 49°11' W 122°55'0 0.0
2018-Apr-04 19:29N 49°11' W 122°55'0 0.0
2018-Apr-04 18:59N 49°11' W 122°55'0 0.0
2018-Apr-04 18:29N 49°11' W 122°55'0 0.0
2018-Apr-04 17:59N 49°11' W 122°55'0 0.0
2018-Apr-04 17:29N 49°11' W 122°55'0 0.0
2018-Apr-04 16:59N 49°11' W 122°55'0 0.0
2018-Apr-04 16:29N 49°11' W 122°55'0 0.0
2018-Apr-04 15:56N 49°11' W 122°55'0 0.0
2018-Apr-04 15:26N 49°11' W 122°55'0 0.0
2018-Apr-04 14:59N 49°11' W 122°55'0 0.0
2018-Apr-04 14:29N 49°11' W 122°55'0 0.0
2018-Apr-04 13:59N 49°11' W 122°55'0 0.0
2018-Apr-04 13:29N 49°11' W 122°55'0 0.0
2018-Apr-04 12:59N 49°11' W 122°55'0 0.0
2018-Apr-04 12:29N 49°11' W 122°55'0 0.0
2018-Apr-04 11:56N 49°11' W 122°55'0 0.0
2018-Apr-04 11:29N 49°11' W 122°55'0 0.0
2018-Apr-04 10:59N 49°11' W 122°55'0 0.0
2018-Apr-04 10:29N 49°11' W 122°55'0 0.0
2018-Apr-04 09:59N 49°11' W 122°55'0 0.0
2018-Apr-04 09:29N 49°11' W 122°55'0 0.0
2018-Apr-04 08:56N 49°11' W 122°55'0 0.0
2018-Apr-04 08:29N 49°11' W 122°55'0 0.0
2018-Apr-04 07:59N 49°11' W 122°55'0 0.0
2018-Apr-04 07:29N 49°11' W 122°55'0 0.0
2018-Apr-04 06:56N 49°11' W 122°55'0 0.0
2018-Apr-04 06:29N 49°11' W 122°55'0 0.0
2018-Apr-04 05:59N 49°11' W 122°55'0 0.0
2018-Apr-04 05:29N 49°11' W 122°55'0 0.0
2018-Apr-04 04:59N 49°11' W 122°55'0 0.0
2018-Apr-04 04:29N 49°11' W 122°55'0 0.0
2018-Apr-04 03:59N 49°11' W 122°55'0 0.0
2018-Apr-04 03:29N 49°11' W 122°55'0 0.0
2018-Apr-04 02:59N 49°11' W 122°55'0 0.0
2018-Apr-04 02:29N 49°11' W 122°55'0 0.0
2018-Apr-04 01:59N 49°11' W 122°55'0 0.0
2018-Apr-04 01:29N 49°11' W 122°55'0 0.0
2018-Apr-04 00:59N 49°11' W 122°55'0 0.0
2018-Apr-04 00:29N 49°11' W 122°55'0 0.0
2018-Apr-03 23:59N 49°11' W 122°55'0 0.0
2018-Apr-03 23:29N 49°11' W 122°55'0 0.0
2018-Apr-03 22:59N 49°11' W 122°55'0 0.0
2018-Apr-03 22:29N 49°11' W 122°55'0 0.0
2018-Apr-03 21:59N 49°11' W 122°55'0 0.0
2018-Apr-03 21:29N 49°11' W 122°55'0 0.0
2018-Apr-03 20:59N 49°11' W 122°55'0 0.0
2018-Apr-03 20:26N 49°11' W 122°55'0 0.0
2018-Apr-03 19:59N 49°11' W 122°55'0 0.0
2018-Apr-03 19:26N 49°11' W 122°55'0 0.0
2018-Apr-03 18:59N 49°11' W 122°55'0 0.0
2018-Apr-03 18:29N 49°11' W 122°55'0 0.0
2018-Apr-03 17:59N 49°11' W 122°55'0 0.0
2018-Apr-03 17:29N 49°11' W 122°55'0 0.0
2018-Apr-03 16:59N 49°11' W 122°55'0 0.0
2018-Apr-03 16:29N 49°11' W 122°55'0 0.0
2018-Apr-03 15:59N 49°11' W 122°55'0 0.0
2018-Apr-03 15:29N 49°11' W 122°55'0 0.0
2018-Apr-03 14:59N 49°11' W 122°55'0 0.0
2018-Apr-03 14:29N 49°11' W 122°55'0 0.0
2018-Apr-03 13:59N 49°11' W 122°55'0 0.0
2018-Apr-03 13:29N 49°11' W 122°55'0 0.0
2018-Apr-03 12:59N 49°11' W 122°55'0 0.0
2018-Apr-03 12:29N 49°11' W 122°55'0 0.0
2018-Apr-03 11:59N 49°11' W 122°55'0 0.0
2018-Apr-03 11:29N 49°11' W 122°55'0 0.0
2018-Apr-03 10:59N 49°11' W 122°55'0 0.0
2018-Apr-03 10:29N 49°11' W 122°55'0 0.0
2018-Apr-03 09:59N 49°11' W 122°55'0 0.0
2018-Apr-03 09:29N 49°11' W 122°55'0 0.0
2018-Apr-03 08:59N 49°11' W 122°55'0 0.0
2018-Apr-03 08:29N 49°11' W 122°55'0 0.0
2018-Apr-03 07:59N 49°11' W 122°55'0 0.0
2018-Apr-03 07:29N 49°11' W 122°55'0 0.0
2018-Apr-03 06:56N 49°11' W 122°55'0 0.0
2018-Apr-03 06:29N 49°11' W 122°55'0 0.0
2018-Apr-03 05:59N 49°11' W 122°55'0 0.0
2018-Apr-03 05:29N 49°11' W 122°55'0 0.0
2018-Apr-03 04:56N 49°11' W 122°55'0 0.0
2018-Apr-03 04:29N 49°11' W 122°55'0 0.0
2018-Apr-03 03:56N 49°11' W 122°55'0 0.0
2018-Apr-03 03:29N 49°11' W 122°55'0 0.0
2018-Apr-03 02:59N 49°11' W 122°55'0 0.0
2018-Apr-03 02:29N 49°11' W 122°55'0 0.0
2018-Apr-03 01:59N 49°11' W 122°55'0 0.0
2018-Apr-03 01:29N 49°11' W 122°55'0 0.0
2018-Apr-03 00:59N 49°11' W 122°55'0 0.0
2018-Apr-03 00:29N 49°11' W 122°55'0 0.0
2018-Apr-02 23:59N 49°11' W 122°55'0 0.0
2018-Apr-02 23:29N 49°11' W 122°55'0 0.0
2018-Apr-02 22:59N 49°11' W 122°55'0 0.0
2018-Apr-02 22:29N 49°11' W 122°55'0 0.0
2018-Apr-02 21:59N 49°11' W 122°55'0 0.0
2018-Apr-02 21:29N 49°11' W 122°55'0 0.0
2018-Apr-02 20:59N 49°11' W 122°55'0 0.0
2018-Apr-02 20:29N 49°11' W 122°55'0 0.0
2018-Apr-02 19:59N 49°11' W 122°55'0 0.0
2018-Apr-02 19:29N 49°11' W 122°55'0 0.0
2018-Apr-02 18:59N 49°11' W 122°55'0 0.0
2018-Apr-02 18:29N 49°11' W 122°55'0 0.0
2018-Apr-02 17:59N 49°11' W 122°55'0 0.0
2018-Apr-02 17:29N 49°11' W 122°55'0 0.0
2018-Apr-02 16:59N 49°11' W 122°55'0 0.0
2018-Apr-02 16:29N 49°11' W 122°55'0 0.0
2018-Apr-02 15:59N 49°11' W 122°55'0 0.0
2018-Apr-02 15:29N 49°11' W 122°55'0 0.0
2018-Apr-02 14:59N 49°11' W 122°55'0 0.0
2018-Apr-02 14:29N 49°11' W 122°55'0 0.0
2018-Apr-02 13:59N 49°11' W 122°55'0 0.0
2018-Apr-02 13:29N 49°11' W 122°55'0 0.0
2018-Apr-02 12:59N 49°11' W 122°55'0 0.0
2018-Apr-02 12:29N 49°11' W 122°55'0 0.0
2018-Apr-02 11:59N 49°11' W 122°55'0 0.0
2018-Apr-02 11:29N 49°11' W 122°55'0 0.0
2018-Apr-02 10:59N 49°11' W 122°55'0 0.0
2018-Apr-02 10:29N 49°11' W 122°55'0 0.0
2018-Apr-02 09:59N 49°11' W 122°55'0 0.0
2018-Apr-02 09:29N 49°11' W 122°55'0 0.0
2018-Apr-02 08:59N 49°11' W 122°55'0 0.0
2018-Apr-02 08:29N 49°11' W 122°55'0 0.0
2018-Apr-02 07:56N 49°11' W 122°55'0 0.0
2018-Apr-02 07:29N 49°11' W 122°55'0 0.0
2018-Apr-02 06:59N 49°11' W 122°55'0 0.0
2018-Apr-02 06:29N 49°11' W 122°55'0 0.0
2018-Apr-02 05:59N 49°11' W 122°55'0 0.0
2018-Apr-02 05:29N 49°11' W 122°55'0 0.0
2018-Apr-02 04:59N 49°11' W 122°55'0 0.0
2018-Apr-02 04:29N 49°11' W 122°55'0 0.0
2018-Apr-02 03:59N 49°11' W 122°55'0 0.0
2018-Apr-02 03:29N 49°11' W 122°55'0 0.0
2018-Apr-02 02:59N 49°11' W 122°55'0 0.0
2018-Apr-02 02:26N 49°11' W 122°55'0 0.0
2018-Apr-02 01:59N 49°11' W 122°55'0 0.0
2018-Apr-02 01:29N 49°11' W 122°55'0 0.0
2018-Apr-02 00:59N 49°11' W 122°55'0 0.0
2018-Apr-02 00:29N 49°11' W 122°55'0 0.0
2018-Apr-01 23:59N 49°11' W 122°55'0 0.0
2018-Apr-01 23:29N 49°11' W 122°55'0 0.0
2018-Apr-01 22:59N 49°11' W 122°55'0 0.0
2018-Apr-01 22:29N 49°11' W 122°55'0 0.0
2018-Apr-01 21:59N 49°11' W 122°55'0 0.0
2018-Apr-01 21:29N 49°11' W 122°55'0 0.0
2018-Apr-01 20:59N 49°11' W 122°55'0 0.0
2018-Apr-01 20:29N 49°11' W 122°55'0 0.0
2018-Apr-01 19:59N 49°11' W 122°55'0 0.0
2018-Apr-01 19:29N 49°11' W 122°55'0 0.0
2018-Apr-01 18:59N 49°11' W 122°55'0 0.0
2018-Apr-01 18:29N 49°11' W 122°55'0 0.0
2018-Apr-01 17:59N 49°11' W 122°55'0 0.0
2018-Apr-01 17:29N 49°11' W 122°55'0 0.0
2018-Apr-01 16:59N 49°11' W 122°55'0 0.0
2018-Apr-01 16:29N 49°11' W 122°55'0 0.0
2018-Apr-01 15:59N 49°11' W 122°55'0 0.0
2018-Apr-01 15:29N 49°11' W 122°55'0 0.0
2018-Apr-01 14:59N 49°11' W 122°55'0 0.0
2018-Apr-01 14:29N 49°11' W 122°55'0 0.0
2018-Apr-01 13:59N 49°11' W 122°55'0 0.0
2018-Apr-01 13:29N 49°11' W 122°55'0 0.0
2018-Apr-01 12:59N 49°11' W 122°55'0 0.0
2018-Apr-01 12:29N 49°11' W 122°55'0 0.0
2018-Apr-01 11:59N 49°11' W 122°55'0 0.0
2018-Apr-01 11:29N 49°11' W 122°55'0 0.0
2018-Apr-01 10:59N 49°11' W 122°55'0 0.0
2018-Apr-01 10:29N 49°11' W 122°55'0 0.0
2018-Apr-01 09:59N 49°11' W 122°55'0 0.0
2018-Apr-01 09:29N 49°11' W 122°55'0 0.0
2018-Apr-01 08:59N 49°11' W 122°55'0 0.0
2018-Apr-01 08:29N 49°11' W 122°55'0 0.0
2018-Apr-01 07:59N 49°11' W 122°55'0 0.0
2018-Apr-01 07:29N 49°11' W 122°55'0 0.0
2018-Apr-01 06:59N 49°11' W 122°55'0 0.0
2018-Apr-01 06:29N 49°11' W 122°55'0 0.0
2018-Apr-01 05:59N 49°11' W 122°55'0 0.0
2018-Apr-01 05:29N 49°11' W 122°55'0 0.0
2018-Apr-01 04:59N 49°11' W 122°55'0 0.0
2018-Apr-01 04:29N 49°11' W 122°55'0 0.0
2018-Apr-01 03:59N 49°11' W 122°55'0 0.0
2018-Apr-01 03:26N 49°11' W 122°55'0 0.0
2018-Apr-01 02:59N 49°11' W 122°55'0 0.0
2018-Apr-01 02:29N 49°11' W 122°55'0 0.0
2018-Apr-01 01:59N 49°11' W 122°55'0 0.0
2018-Apr-01 01:29N 49°11' W 122°55'0 0.0
2018-Apr-01 00:59N 49°11' W 122°55'0 0.0
2018-Apr-01 00:29N 49°11' W 122°55'0 0.0
2018-Mar-31 23:59N 49°11' W 122°55'0 0.0
2018-Mar-31 23:29N 49°11' W 122°55'0 0.0
2018-Mar-31 22:59N 49°11' W 122°55'0 0.0
2018-Mar-31 22:29N 49°11' W 122°55'0 0.0
2018-Mar-31 21:59N 49°11' W 122°55'0 0.0
2018-Mar-31 21:29N 49°11' W 122°55'0 0.0
2018-Mar-31 20:59N 49°11' W 122°55'0 0.0
2018-Mar-31 20:29N 49°11' W 122°55'0 0.0
2018-Mar-31 19:59N 49°11' W 122°55'0 0.0
2018-Mar-31 19:29N 49°11' W 122°55'0 0.0
2018-Mar-31 18:59N 49°11' W 122°55'0 0.0
2018-Mar-31 18:29N 49°11' W 122°55'0 0.0
2018-Mar-31 17:59N 49°11' W 122°55'0 0.0
2018-Mar-31 17:29N 49°11' W 122°55'0 0.0
2018-Mar-31 16:59N 49°11' W 122°55'0 0.0
2018-Mar-31 16:29N 49°11' W 122°55'0 0.0
2018-Mar-31 15:59N 49°11' W 122°55'0 0.0
2018-Mar-31 15:29N 49°11' W 122°55'0 0.0
2018-Mar-31 14:59N 49°11' W 122°55'0 0.0
2018-Mar-31 14:29N 49°11' W 122°55'0 0.0
2018-Mar-31 13:59N 49°11' W 122°55'0 0.0
2018-Mar-31 13:26N 49°11' W 122°55'0 0.0
2018-Mar-31 12:59N 49°11' W 122°55'0 0.0
2018-Mar-31 12:29N 49°11' W 122°55'0 0.0
2018-Mar-31 11:59N 49°11' W 122°55'0 0.0
2018-Mar-31 11:29N 49°11' W 122°55'0 0.0
2018-Mar-31 10:59N 49°11' W 122°55'0 0.0
2018-Mar-31 10:29N 49°11' W 122°55'0 0.0
2018-Mar-31 09:59N 49°11' W 122°55'0 0.0
2018-Mar-31 09:29N 49°11' W 122°55'0 0.0
2018-Mar-31 08:59N 49°11' W 122°55'0 0.0
2018-Mar-31 08:29N 49°11' W 122°55'0 0.0
2018-Mar-31 07:59N 49°11' W 122°55'0 0.0
2018-Mar-31 07:29N 49°11' W 122°55'0 0.0
2018-Mar-31 06:59N 49°11' W 122°55'0 0.0
2018-Mar-31 06:29N 49°11' W 122°55'0 0.0
2018-Mar-31 05:59N 49°11' W 122°55'0 0.0
2018-Mar-31 05:29N 49°11' W 122°55'0 0.0
2018-Mar-31 04:59N 49°11' W 122°55'0 0.0
2018-Mar-31 04:29N 49°11' W 122°55'0 0.0
2018-Mar-31 03:59N 49°11' W 122°55'0 0.0
2018-Mar-31 03:29N 49°11' W 122°55'0 0.0
2018-Mar-31 02:59N 49°11' W 122°55'0 0.0
2018-Mar-31 02:29N 49°11' W 122°55'0 0.0
2018-Mar-31 01:59N 49°11' W 122°55'0 0.0
2018-Mar-31 01:29N 49°11' W 122°55'0 0.0
2018-Mar-31 00:59N 49°11' W 122°55'0 0.0
2018-Mar-31 00:29N 49°11' W 122°55'0 0.0
2018-Mar-30 23:59N 49°11' W 122°55'0 0.0
2018-Mar-30 23:29N 49°11' W 122°55'0 0.0
2018-Mar-30 22:59N 49°11' W 122°55'0 0.0
2018-Mar-30 22:29N 49°11' W 122°55'0 0.0
2018-Mar-30 21:59N 49°11' W 122°55'0 0.0
2018-Mar-30 21:29N 49°11' W 122°55'0 0.0
2018-Mar-30 20:59N 49°11' W 122°55'0 0.0
2018-Mar-30 20:29N 49°11' W 122°55'0 0.0
2018-Mar-30 19:59N 49°11' W 122°55'0 0.0
2018-Mar-30 19:29N 49°11' W 122°55'0 0.0
2018-Mar-30 18:59N 49°11' W 122°55'0 0.0
2018-Mar-30 18:29N 49°11' W 122°55'0 0.0
2018-Mar-30 17:59N 49°11' W 122°55'0 0.0
2018-Mar-30 17:26N 49°11' W 122°55'0 0.0
2018-Mar-30 16:53N 49°11' W 122°55'0 0.0
2018-Mar-30 16:29N 49°11' W 122°55'0 0.0
2018-Mar-30 15:56N 49°11' W 122°55'0 0.0
2018-Mar-30 15:29N 49°11' W 122°55'0 0.0
2018-Mar-30 14:59N 49°11' W 122°55'0 0.0
2018-Mar-30 14:29N 49°11' W 122°55'0 0.0
2018-Mar-30 13:59N 49°11' W 122°55'0 0.0
2018-Mar-30 13:29N 49°11' W 122°55'0 0.0
2018-Mar-30 12:59N 49°11' W 122°55'0 0.0
2018-Mar-30 12:29N 49°11' W 122°55'0 0.0
2018-Mar-30 11:59N 49°11' W 122°55'0 0.0
2018-Mar-30 11:29N 49°11' W 122°55'0 0.0
2018-Mar-30 10:59N 49°11' W 122°55'0 0.0
2018-Mar-30 10:29N 49°11' W 122°55'0 0.0
2018-Mar-30 09:59N 49°11' W 122°55'0 0.0
2018-Mar-30 09:29N 49°11' W 122°55'0 0.0
2018-Mar-30 08:59N 49°11' W 122°55'0 0.0
2018-Mar-30 08:29N 49°11' W 122°55'0 0.0
2018-Mar-30 07:59N 49°11' W 122°55'0 0.0
2018-Mar-30 07:26N 49°11' W 122°55'0 0.0
2018-Mar-30 06:59N 49°11' W 122°55'0 0.0
2018-Mar-30 06:29N 49°11' W 122°55'0 0.0
2018-Mar-30 05:59N 49°11' W 122°55'0 0.0
2018-Mar-30 05:29N 49°11' W 122°55'0 0.0
2018-Mar-30 04:59N 49°11' W 122°55'0 0.0
2018-Mar-30 04:29N 49°11' W 122°55'0 0.0
2018-Mar-30 03:59N 49°11' W 122°55'0 0.0
2018-Mar-30 03:29N 49°11' W 122°55'0 0.0
2018-Mar-30 02:59N 49°11' W 122°55'0 0.0
2018-Mar-30 02:29N 49°11' W 122°55'0 0.0
2018-Mar-30 01:59N 49°11' W 122°55'0 0.0
2018-Mar-30 01:26N 49°11' W 122°55'0 0.0
2018-Mar-30 00:59N 49°11' W 122°55'0 0.0
2018-Mar-30 00:29N 49°11' W 122°55'0 0.0
2018-Mar-29 23:59N 49°11' W 122°55'0 0.0
2018-Mar-29 23:29N 49°11' W 122°55'0 0.0
2018-Mar-29 22:59N 49°11' W 122°55'0 0.0
2018-Mar-29 22:29N 49°11' W 122°55'0 0.0
2018-Mar-29 21:59N 49°11' W 122°55'0 0.0
2018-Mar-29 21:29N 49°11' W 122°55'0 0.0
2018-Mar-29 20:56N 49°11' W 122°55'0 0.0
2018-Mar-29 20:29N 49°11' W 122°55'0 0.0
2018-Mar-29 19:59N 49°11' W 122°55'0 0.0
2018-Mar-29 19:29N 49°11' W 122°55'0 0.0
2018-Mar-29 18:56N 49°11' W 122°55'0 0.0
2018-Mar-29 18:29N 49°11' W 122°55'0 0.0
2018-Mar-29 17:59N 49°11' W 122°55'0 0.0
2018-Mar-29 17:29N 49°11' W 122°55'0 0.0
2018-Mar-29 16:59N 49°11' W 122°55'0 0.0
2018-Mar-29 16:23N 49°11' W 122°55'0 0.0
2018-Mar-29 15:59N 49°11' W 122°55'0 0.0
2018-Mar-29 15:29N 49°11' W 122°55'0 0.0
2018-Mar-29 14:56N 49°11' W 122°55'0 0.0
2018-Mar-29 14:29N 49°11' W 122°55'0 0.0
2018-Mar-29 13:59N 49°11' W 122°55'0 0.0
2018-Mar-29 13:26N 49°11' W 122°55'0 0.0
2018-Mar-29 12:59N 49°11' W 122°55'0 0.0
2018-Mar-29 12:29N 49°11' W 122°55'0 0.0
2018-Mar-29 11:59N 49°11' W 122°55'0 0.0
2018-Mar-29 11:29N 49°11' W 122°55'0 0.0
2018-Mar-29 10:59N 49°11' W 122°55'0 0.0
2018-Mar-29 10:29N 49°11' W 122°55'0 0.0
2018-Mar-29 09:59N 49°11' W 122°55'0 0.0
2018-Mar-29 09:29N 49°11' W 122°55'0 0.0
2018-Mar-29 08:59N 49°11' W 122°55'0 0.0
2018-Mar-29 08:29N 49°11' W 122°55'0 0.0
2018-Mar-29 07:59N 49°11' W 122°55'0 0.0
2018-Mar-29 07:29N 49°11' W 122°55'0 0.0
2018-Mar-29 06:59N 49°11' W 122°55'0 0.0
2018-Mar-29 06:29N 49°11' W 122°55'0 0.0
2018-Mar-29 05:59N 49°11' W 122°55'0 0.0
2018-Mar-29 05:29N 49°11' W 122°55'0 0.0
2018-Mar-29 04:59N 49°11' W 122°55'0 0.0
2018-Mar-29 04:29N 49°11' W 122°55'0 0.0
2018-Mar-29 03:59N 49°11' W 122°55'0 0.0
2018-Mar-29 03:29N 49°11' W 122°55'0 0.0
2018-Mar-29 02:59N 49°11' W 122°55'0 0.0
2018-Mar-29 02:29N 49°11' W 122°55'0 0.0
2018-Mar-29 01:59N 49°11' W 122°55'0 0.0
2018-Mar-29 01:29N 49°11' W 122°55'0 0.0
2018-Mar-29 00:59N 49°11' W 122°55'0 0.0
2018-Mar-29 00:29N 49°11' W 122°55'0 0.0
2018-Mar-28 23:59N 49°11' W 122°55'0 0.0
2018-Mar-28 23:29N 49°11' W 122°55'0 0.0
2018-Mar-28 22:59N 49°11' W 122°55'0 0.0
2018-Mar-28 22:29N 49°11' W 122°55'0 0.0
2018-Mar-28 21:59N 49°11' W 122°55'0 0.0
2018-Mar-28 21:29N 49°11' W 122°55'0 0.0
2018-Mar-28 20:59N 49°11' W 122°55'0 0.0
2018-Mar-28 20:29N 49°11' W 122°55'0 0.0
2018-Mar-28 19:59N 49°11' W 122°55'0 0.0
2018-Mar-28 19:29N 49°11' W 122°55'0 0.0
2018-Mar-28 18:59N 49°11' W 122°55'0 0.0
2018-Mar-28 18:26N 49°11' W 122°55'0 0.0
2018-Mar-28 17:59N 49°11' W 122°55'0 0.0
2018-Mar-28 17:29N 49°11' W 122°55'0 0.0
2018-Mar-28 16:59N 49°11' W 122°55'0 0.0
2018-Mar-28 16:29N 49°11' W 122°55'0 0.0
2018-Mar-28 15:59N 49°11' W 122°55'0 0.0
2018-Mar-28 15:29N 49°11' W 122°55'0 0.0
2018-Mar-28 14:59N 49°11' W 122°55'0 0.0
2018-Mar-28 14:29N 49°11' W 122°55'0 0.0
2018-Mar-28 13:59N 49°11' W 122°55'0 0.0
2018-Mar-28 13:29N 49°11' W 122°55'0 0.0
2018-Mar-28 12:59N 49°11' W 122°55'0 0.0
2018-Mar-28 12:29N 49°11' W 122°55'0 0.0
2018-Mar-28 11:59N 49°11' W 122°55'0 0.0
2018-Mar-28 11:29N 49°11' W 122°55'0 0.0
2018-Mar-28 10:59N 49°11' W 122°55'0 0.0
2018-Mar-28 10:29N 49°11' W 122°55'0 0.0
2018-Mar-28 09:56N 49°11' W 122°55'0 0.0
2018-Mar-28 09:29N 49°11' W 122°55'0 0.0
2018-Mar-28 08:59N 49°11' W 122°55'0 0.0
2018-Mar-28 08:29N 49°11' W 122°55'0 0.0
2018-Mar-28 07:59N 49°11' W 122°55'0 0.0
2018-Mar-28 07:29N 49°11' W 122°55'0 0.0
2018-Mar-28 06:59N 49°11' W 122°55'0 0.0
2018-Mar-28 06:29N 49°11' W 122°55'0 0.0
2018-Mar-28 05:59N 49°11' W 122°55'0 0.0
2018-Mar-28 05:29N 49°11' W 122°55'0 0.0
2018-Mar-28 04:59N 49°11' W 122°55'0 0.0
2018-Mar-28 04:29N 49°11' W 122°55'0 0.0
2018-Mar-28 03:59N 49°11' W 122°55'0 0.0
2018-Mar-28 03:29N 49°11' W 122°55'0 0.0
2018-Mar-28 02:59N 49°11' W 122°55'0 0.0
2018-Mar-28 02:29N 49°11' W 122°55'0 0.0
2018-Mar-28 01:59N 49°11' W 122°55'0 0.0
2018-Mar-28 01:29N 49°11' W 122°55'0 0.0
2018-Mar-28 00:59N 49°11' W 122°55'0 0.0
2018-Mar-28 00:29N 49°11' W 122°55'0 0.0
2018-Mar-27 23:59N 49°11' W 122°55'0 0.0
2018-Mar-27 23:29N 49°11' W 122°55'0 0.0
2018-Mar-27 22:59N 49°11' W 122°55'0 0.0
2018-Mar-27 22:29N 49°11' W 122°55'0 0.0
2018-Mar-27 21:59N 49°11' W 122°55'0 0.0
2018-Mar-27 21:29N 49°11' W 122°55'0 0.0
2018-Mar-27 20:59N 49°11' W 122°55'0 0.0
2018-Mar-27 20:29N 49°11' W 122°55'0 0.0
2018-Mar-27 19:59N 49°11' W 122°55'0 0.0
2018-Mar-27 19:29N 49°11' W 122°55'0 0.0
2018-Mar-27 18:59N 49°11' W 122°55'0 0.0
2018-Mar-27 18:29N 49°11' W 122°55'0 0.0
2018-Mar-27 17:59N 49°11' W 122°55'0 0.0
2018-Mar-27 17:29N 49°11' W 122°55'0 0.0
2018-Mar-27 16:59N 49°11' W 122°55'0 0.0
2018-Mar-27 16:29N 49°11' W 122°55'0 0.0
2018-Mar-27 15:59N 49°11' W 122°55'0 0.0
2018-Mar-27 15:29N 49°11' W 122°55'0 0.0
2018-Mar-27 14:56N 49°11' W 122°55'0 0.0
2018-Mar-27 14:29N 49°11' W 122°55'0 0.0
2018-Mar-27 14:00N 49°11' W 122°55'1 2.0
2018-Mar-27 13:30N 49°11' W 122°55'3 6.9
2018-Mar-27 13:00N 49°09' W 123°00'4 8.8
2018-Mar-27 12:30N 49°07' W 123°06'510.3
2018-Mar-27 12:01N 49°08' W 123°13'510.9
2018-Mar-27 11:30N 49°05' W 123°21'3 5.4
2018-Mar-27 10:59N 49°08' W 123°24'4 8.3
2018-Mar-27 10:30N 49°12' W 123°22'4 8.6
2018-Mar-27 10:00N 49°16' W 123°21'5 9.5
2018-Mar-27 09:30N 49°19' W 123°15'1 2.0
2018-Mar-27 08:58N 49°18' W 123°14'0 0.0
2018-Mar-27 08:28N 49°17' W 123°14'0 0.0
2018-Mar-27 07:58N 49°18' W 123°14'0 0.0
2018-Mar-27 07:28N 49°17' W 123°14'0 0.1
2018-Mar-27 06:58N 49°17' W 123°14'0 0.1
2018-Mar-27 06:28N 49°17' W 123°14'0 0.1
2018-Mar-27 05:46N 49°18' W 123°14'0 0.1
2018-Mar-27 05:16N 49°18' W 123°14'0 0.1
2018-Mar-27 04:58N 49°18' W 123°14'0 0.0
2018-Mar-27 04:28N 49°18' W 123°14'0 0.1
2018-Mar-27 03:49N 49°17' W 123°14'0 0.1
2018-Mar-27 03:28N 49°17' W 123°14'0 0.0
2018-Mar-27 02:49N 49°17' W 123°14'0 0.0
2018-Mar-27 02:28N 49°17' W 123°14'0 0.1
2018-Mar-27 01:58N 49°17' W 123°14'0 0.1
2018-Mar-27 01:25N 49°18' W 123°14'0 0.0
2018-Mar-27 00:58N 49°18' W 123°14'0 0.0
2018-Mar-27 00:28N 49°18' W 123°14'0 0.1
2018-Mar-26 23:52N 49°18' W 123°14'0 0.0
2018-Mar-26 23:28N 49°18' W 123°14'  

Dump ship's entire track history